Time;durP1;ratioP1;P1;durP2;ratioP2;P2;SDS_P1;SDS_P2;PMS_P1;PMS_P2;Temp;Humidity;BMP_temperature;BMP_pressure;BME280_temperature;BME280_humidity;BME280_pressure;Samples;Min_cycle;Max_cycle;Signal;HPM_P1;HPM_P2
2023/01/08 06:40:14;;;;;;;10.90;6.50;;;5.60;92.00;;;;;;5084039;27;20106;-73
2023/01/08 06:42:42;;;;;;;9.07;6.38;;;5.60;92.00;;;;;;5086566;27;20035;-75
2023/01/08 06:45:08;;;;;;;8.45;6.22;;;5.60;92.00;;;;;;5085204;28;20028;-76
2023/01/08 06:47:34;;;;;;;9.52;6.22;;;5.60;92.00;;;;;;5068781;28;20395;-73
2023/01/08 06:49:59;;;;;;;9.55;7.05;;;5.60;92.00;;;;;;5067155;28;20070;-75
2023/01/08 06:52:25;;;;;;;10.73;7.22;;;5.60;92.10;;;;;;5049806;28;20082;-76
2023/01/08 06:54:50;;;;;;;10.02;6.60;;;5.60;92.10;;;;;;5069291;28;20410;-76
2023/01/08 06:57:16;;;;;;;8.52;5.82;;;5.70;92.10;;;;;;5067925;28;20035;-76
2023/01/08 06:59:41;;;;;;;9.80;6.28;;;5.70;92.10;;;;;;5068736;27;20058;-76
2023/01/08 07:02:13;;;;;;;8.57;5.75;;;5.70;92.10;;;;;;5041325;28;20817;-76
2023/01/08 07:04:39;;;;;;;8.90;5.60;;;5.70;92.20;;;;;;5037526;28;20306;-76
2023/01/08 07:07:04;;;;;;;9.82;5.82;;;5.70;92.10;;;;;;5050063;28;20774;-76
2023/01/08 07:09:30;;;;;;;7.93;4.97;;;5.70;92.20;;;;;;5062747;28;20059;-76
2023/01/08 07:12:12;;;;;;;9.45;6.13;;;5.70;92.10;;;;;;5016170;28;20039;-75
2023/01/08 07:14:39;;;;;;;7.53;5.05;;;5.70;92.20;;;;;;5071064;28;20891;-75
2023/01/08 07:17:04;;;;;;;6.28;5.00;;;5.70;92.10;;;;;;5073234;28;20107;-76
2023/01/08 07:19:30;;;;;;;8.32;5.53;;;5.80;92.20;;;;;;5070179;28;20032;-76
2023/01/08 07:21:56;;;;;;;8.10;5.28;;;5.70;92.10;;;;;;5069985;28;20515;-76
2023/01/08 07:24:21;;;;;;;11.00;6.18;;;5.70;92.20;;;;;;5056852;28;20046;-74
2023/01/08 07:26:47;;;;;;;8.52;5.72;;;5.70;92.10;;;;;;5044977;28;20024;-75
2023/01/08 07:29:12;;;;;;;6.63;4.78;;;5.80;92.20;;;;;;5048625;28;20016;-74
2023/01/08 07:31:38;;;;;;;8.35;5.38;;;5.70;92.20;;;;;;5072243;28;20038;-74
2023/01/08 07:34:03;;;;;;;6.43;4.55;;;5.80;92.20;;;;;;5086359;28;20028;-76
2023/01/08 07:36:29;;;;;;;8.50;5.68;;;5.70;92.10;;;;;;5070556;28;20431;-76
2023/01/08 07:38:54;;;;;;;9.02;5.60;;;5.80;92.20;;;;;;5065262;28;20722;-76
2023/01/08 07:41:20;;;;;;;11.18;7.25;;;5.80;92.20;;;;;;4997294;28;20517;-75
2023/01/08 07:43:47;;;;;;;9.70;6.18;;;5.80;92.20;;;;;;5066205;28;20485;-75
2023/01/08 07:46:12;;;;;;;9.15;6.88;;;5.80;92.20;;;;;;5060859;28;20031;-74
2023/01/08 07:48:38;;;;;;;11.15;5.45;;;5.80;92.20;;;;;;5053241;28;20031;-74
2023/01/08 07:51:04;;;;;;;7.18;5.40;;;5.80;92.20;;;;;;5055898;28;20043;-75
2023/01/08 07:53:30;;;;;;;14.13;9.07;;;5.80;92.20;;;;;;5048244;28;20890;-74
2023/01/08 07:56:03;;;;;;;26.20;15.73;;;5.80;92.20;;;;;;5046968;28;20106;-75
2023/01/08 07:58:29;;;;;;;19.85;13.60;;;5.90;92.30;;;;;;5071369;28;20588;-74
2023/01/08 08:00:54;;;;;;;11.98;8.18;;;5.90;92.20;;;;;;5064848;28;20039;-76
2023/01/08 08:03:20;;;;;;;8.75;6.13;;;5.90;92.30;;;;;;5065494;28;20036;-73
2023/01/08 08:05:45;;;;;;;8.45;6.05;;;5.90;92.30;;;;;;5054787;28;20653;-76
2023/01/08 08:08:11;;;;;;;8.43;6.15;;;5.90;92.30;;;;;;5050289;28;20039;-75
2023/01/08 08:10:37;;;;;;;9.45;6.90;;;5.90;92.30;;;;;;5069322;28;20075;-76
2023/01/08 08:13:03;;;;;;;8.13;5.65;;;5.90;92.30;;;;;;5056069;28;20495;-76
2023/01/08 08:15:28;;;;;;;9.02;6.35;;;5.90;92.30;;;;;;5066808;28;20032;-76
2023/01/08 08:17:54;;;;;;;9.55;6.95;;;5.90;92.30;;;;;;5069306;28;20031;-76
2023/01/08 08:20:19;;;;;;;10.85;7.05;;;5.90;92.30;;;;;;5071413;28;20031;-73
2023/01/08 08:22:45;;;;;;;10.05;6.07;;;6.00;92.30;;;;;;5070892;28;21028;-76
2023/01/08 08:25:11;;;;;;;14.93;9.00;;;6.00;92.30;;;;;;5056694;28;20569;-76
2023/01/08 08:27:36;;;;;;;11.43;6.90;;;6.00;92.30;;;;;;5074017;28;20042;-76
2023/01/08 08:30:03;;;;;;;16.15;11.20;;;6.00;92.30;;;;;;5086306;28;20036;-77
2023/01/08 08:32:28;;;;;;;28.17;16.75;;;6.00;92.30;;;;;;5053372;28;20056;-76
2023/01/08 08:34:54;;;;;;;31.17;18.73;;;6.10;92.30;;;;;;5070080;28;20062;-75
2023/01/08 08:37:19;;;;;;;32.13;19.92;;;6.10;92.40;;;;;;5065947;28;20058;-76
2023/01/08 08:39:45;;;;;;;27.15;16.00;;;6.10;92.40;;;;;;5057273;28;20045;-76
2023/01/08 08:42:10;;;;;;;33.10;19.02;;;6.10;92.30;;;;;;5046724;28;20031;-77
2023/01/08 08:44:36;;;;;;;27.70;16.52;;;6.10;92.40;;;;;;5050360;28;20652;-76
2023/01/08 08:47:05;;;;;;;30.02;16.80;;;6.20;92.40;;;;;;5065983;28;20040;-77
2023/01/08 08:49:30;;;;;;;14.13;9.40;;;6.20;92.40;;;;;;5065100;28;20044;-76
2023/01/08 08:51:56;;;;;;;18.42;12.25;;;6.20;92.40;;;;;;5061293;28;20043;-76
2023/01/08 08:54:21;;;;;;;13.73;9.15;;;6.20;92.40;;;;;;5087706;28;20171;-75
2023/01/08 08:56:47;;;;;;;9.85;8.70;;;6.30;92.40;;;;;;5071830;28;20764;-76
2023/01/08 08:59:13;;;;;;;10.63;7.68;;;6.30;92.40;;;;;;5073264;28;20040;-74
2023/01/08 09:01:38;;;;;;;10.63;8.05;;;6.30;92.40;;;;;;5076868;28;20807;-74
2023/01/08 09:04:04;;;;;;;12.55;7.35;;;6.40;92.40;;;;;;5054728;28;20611;-74
2023/01/08 09:06:30;;;;;;;12.30;8.15;;;6.40;92.40;;;;;;5072483;27;20054;-76
2023/01/08 09:08:56;;;;;;;13.63;8.45;;;6.40;92.40;;;;;;5057325;28;20032;-76
2023/01/08 09:11:21;;;;;;;12.90;8.18;;;6.40;92.40;;;;;;5074420;28;20051;-75
2023/01/08 09:13:47;;;;;;;14.77;9.00;;;6.40;92.40;;;;;;5044883;28;20058;-73
2023/01/08 09:16:13;;;;;;;13.70;7.95;;;6.50;92.40;;;;;;5070708;28;20063;-74
2023/01/08 09:18:38;;;;;;;10.38;7.28;;;6.50;92.50;;;;;;5073681;28;20036;-74
2023/01/08 09:21:05;;;;;;;9.20;6.55;;;6.50;92.50;;;;;;5059715;28;20077;-76
2023/01/08 09:23:31;;;;;;;9.20;6.78;;;6.50;92.50;;;;;;5072904;28;20126;-75
2023/01/08 09:26:03;;;;;;;8.90;6.50;;;6.60;92.90;;;;;;5051951;28;20038;-75
2023/01/08 09:28:29;;;;;;;11.65;6.32;;;6.60;92.60;;;;;;5060004;28;20551;-75
2023/01/08 09:30:54;;;;;;;9.88;6.55;;;6.60;92.50;;;;;;5058012;28;20036;-75
2023/01/08 09:33:20;;;;;;;11.65;7.28;;;6.60;92.60;;;;;;5074407;28;20028;-76
2023/01/08 09:35:45;;;;;;;9.52;6.32;;;6.70;92.60;;;;;;5070298;27;20035;-76
2023/01/08 09:38:11;;;;;;;9.60;6.43;;;6.70;92.70;;;;;;5066296;28;20441;-75
2023/01/08 09:40:51;;;;;;;8.80;6.20;;;6.80;92.70;;;;;;5067905;28;20547;-77
2023/01/08 09:43:18;;;;;;;9.27;5.93;;;6.80;92.70;;;;;;5041532;28;20036;-74
2023/01/08 09:45:44;;;;;;;7.93;5.45;;;6.90;92.70;;;;;;5054889;28;20063;-76
2023/01/08 09:48:13;;;;;;;9.65;5.85;;;6.90;92.70;;;;;;5071980;28;20029;-76
2023/01/08 09:50:39;;;;;;;8.85;5.60;;;6.90;92.70;;;;;;5037756;28;20156;-75
2023/01/08 09:53:04;;;;;;;7.47;5.32;;;6.90;92.70;;;;;;5038777;28;20660;-76
2023/01/08 09:55:32;;;;;;;8.07;5.80;;;7.00;92.70;;;;;;5055727;28;20047;-76
2023/01/08 09:57:58;;;;;;;11.45;7.38;;;7.00;92.70;;;;;;5041540;28;20047;-73
2023/01/08 10:00:27;;;;;;;12.98;7.65;;;7.00;92.70;;;;;;5038324;28;20552;-75
2023/01/08 10:02:53;;;;;;;10.45;8.30;;;7.00;92.70;;;;;;5055684;28;20036;-75
2023/01/08 10:05:18;;;;;;;9.98;7.10;;;7.00;92.70;;;;;;5042026;28;20038;-73
2023/01/08 10:07:44;;;;;;;11.02;8.10;;;7.00;92.70;;;;;;5069722;28;20546;-75
2023/01/08 10:10:25;;;;;;;8.43;6.18;;;7.00;92.70;;;;;;5055819;28;20119;-74
2023/01/08 10:12:50;;;;;;;11.13;7.00;;;7.10;92.80;;;;;;5069923;28;20502;-75
2023/01/08 10:15:18;;;;;;;7.50;5.60;;;7.10;92.70;;;;;;5060650;28;20342;-76
2023/01/08 10:18:03;;;;;;;10.13;6.68;;;7.10;92.70;;;;;;5021577;28;20024;-74
2023/01/08 10:20:29;;;;;;;7.78;5.53;;;7.20;92.80;;;;;;5068301;28;20043;-75
2023/01/08 10:22:55;;;;;;;7.07;5.30;;;7.20;92.70;;;;;;5049611;28;20032;-76
2023/01/08 10:25:26;;;;;;;6.40;4.97;;;7.20;92.80;;;;;;5037338;28;20052;-75
2023/01/08 10:27:58;;;;;;;8.20;5.13;;;7.20;92.80;;;;;;5051031;28;20627;-75
2023/01/08 10:30:30;;;;;;;8.70;5.35;;;7.30;92.80;;;;;;5050488;28;20119;-74
2023/01/08 10:33:01;;;;;;;7.80;5.50;;;7.30;92.70;;;;;;5052501;28;20079;-75
2023/01/08 10:35:38;;;;;;;10.07;6.13;;;7.40;93.10;;;;;;5052246;28;20059;-76
2023/01/08 10:38:04;;;;;;;13.25;6.30;;;7.40;92.70;;;;;;5029849;28;20105;-75
2023/01/08 10:40:37;;;;;;;11.40;6.60;;;7.40;92.70;;;;;;5057450;28;20669;-76
2023/01/08 10:43:11;;;;;;;9.45;6.18;;;7.50;92.80;;;;;;5054811;28;20134;-75
2023/01/08 10:45:36;;;;;;;8.90;6.00;;;7.50;93.10;;;;;;5047036;28;20551;-76
2023/01/08 10:48:04;;;;;;;10.43;6.68;;;7.60;92.80;;;;;;5092558;27;20035;-76
2023/01/08 10:50:31;;;;;;;12.52;8.52;;;7.60;92.90;;;;;;5039587;28;20139;-77
2023/01/08 10:53:01;;;;;;;12.55;7.03;;;7.60;92.70;;;;;;5058140;28;20529;-76
2023/01/08 10:55:28;;;;;;;7.60;5.43;;;7.70;92.80;;;;;;5033164;28;20036;-76
2023/01/08 10:58:12;;;;;;;37.10;16.50;;;7.70;92.80;;;;;;5078488;28;20085;-74
2023/01/08 11:00:37;;;;;;;9.80;6.30;;;7.70;92.80;;;;;;5059878;28;20659;-74
2023/01/08 11:03:07;;;;;;;27.30;12.13;;;7.80;92.70;;;;;;5043842;28;20030;-76
2023/01/08 11:05:37;;;;;;;10.05;5.45;;;7.80;92.70;;;;;;5056107;28;20044;-76
2023/01/08 11:08:05;;;;;;;16.58;6.10;;;7.80;92.70;;;;;;5067108;28;20040;-77
2023/01/08 11:10:31;;;;;;;13.00;6.68;;;7.90;92.80;;;;;;5090231;27;20043;-75
2023/01/08 11:13:03;;;;;;;83.40;28.33;;;8.00;92.80;;;;;;5055320;28;20028;-75
2023/01/08 11:15:36;;;;;;;24.25;11.30;;;8.00;92.80;;;;;;5057088;28;20507;-74
2023/01/08 11:18:19;;;;;;;11.50;6.75;;;8.10;92.80;;;;;;5043173;28;20730;-77
2023/01/08 11:20:46;;;;;;;24.00;10.60;;;8.10;92.80;;;;;;5074209;27;20077;-75
2023/01/08 11:23:25;;;;;;;12.23;6.32;;;8.10;92.70;;;;;;5059845;28;20045;-74
2023/01/08 11:26:07;;;;;;;8.52;4.47;;;8.20;92.80;;;;;;5076083;28;20043;-76
2023/01/08 11:29:11;;;;;;;16.33;7.97;;;8.20;92.70;;;;;;5087549;28;20055;-75
2023/01/08 11:31:46;;;;;;;20.02;8.73;;;8.30;92.80;;;;;;5089741;28;20044;-76
2023/01/08 11:34:17;;;;;;;3.90;3.28;;;8.30;92.70;;;;;;5090190;28;20039;-77
2023/01/08 11:36:54;;;;;;;3.70;2.70;;;8.30;92.60;;;;;;5070523;28;20221;-75
2023/01/08 11:39:19;;;;;;;3.67;2.70;;;8.40;92.70;;;;;;5072125;28;20070;-75
2023/01/08 11:42:18;;;;;;;6.10;4.22;;;8.40;92.70;;;;;;5071995;28;20507;-76
2023/01/08 11:44:54;;;;;;;6.32;4.07;;;8.40;92.70;;;;;;5088525;28;20110;-76
2023/01/08 11:47:29;;;;;;;5.90;3.70;;;8.50;92.70;;;;;;5069974;28;20097;-73
2023/01/08 11:50:01;;;;;;;5.55;2.60;;;8.50;92.70;;;;;;5071773;28;20039;-76
2023/01/08 11:52:40;;;;;;;2.97;2.38;;;8.50;92.70;;;;;;5058182;28;20146;-75
2023/01/08 11:55:14;;;;;;;5.07;3.75;;;8.60;92.70;;;;;;5070196;28;20402;-76
2023/01/08 11:57:50;;;;;;;5.80;3.85;;;8.60;92.70;;;;;;5075046;28;20118;-75
2023/01/08 12:00:35;;;;;;;3.42;2.55;;;8.60;92.60;;;;;;5073815;28;20570;-76
2023/01/08 12:03:14;;;;;;;3.72;2.70;;;8.70;92.70;;;;;;5092264;28;20462;-76
2023/01/08 12:05:43;;;;;;;3.22;2.10;;;8.70;92.70;;;;;;5043313;28;20035;-75
2023/01/08 12:08:34;;;;;;;2.50;1.80;;;8.80;92.60;;;;;;5074956;28;20043;-75
2023/01/08 12:11:23;;;;;;;2.85;2.33;;;8.80;92.60;;;;;;5067748;28;20130;-75
2023/01/08 12:14:16;;;;;;;2.35;1.67;;;8.80;92.50;;;;;;5071120;28;20062;-75
2023/01/08 12:16:52;;;;;;;3.60;1.55;;;8.90;92.50;;;;;;5072526;28;20519;-76
2023/01/08 12:19:41;;;;;;;2.05;1.40;;;8.90;92.80;;;;;;5073286;28;20063;-76
2023/01/08 12:22:32;;;;;;;2.40;1.80;;;8.90;92.50;;;;;;5089585;28;20040;-76
2023/01/08 12:25:20;;;;;;;1.85;1.52;;;9.00;92.50;;;;;;5071133;28;20047;-75
2023/01/08 12:28:00;;;;;;;1.85;1.67;;;9.00;92.40;;;;;;5057138;28;20047;-75
2023/01/08 12:30:35;;;;;;;1.73;1.45;;;9.00;92.30;;;;;;5053986;28;20031;-74
2023/01/08 12:33:04;;;;;;;2.10;1.70;;;9.00;92.30;;;;;;5092162;28;20027;-75
2023/01/08 12:35:43;;;;;;;1.73;1.27;;;9.10;92.30;;;;;;5062064;27;20512;-76
2023/01/08 12:38:14;;;;;;;3.05;1.90;;;9.10;92.30;;;;;;5074126;28;20085;-76
2023/01/08 12:40:46;;;;;;;2.47;1.90;;;9.20;92.30;;;;;;5073271;28;20285;-75
2023/01/08 12:43:15;;;;;;;3.40;1.60;;;9.20;92.30;;;;;;5075618;28;20032;-76
2023/01/08 12:45:43;;;;;;;3.35;1.40;;;9.30;92.40;;;;;;5061218;27;20040;-76
2023/01/08 12:48:17;;;;;;;4.32;1.80;;;9.40;92.50;;;;;;5060892;27;20035;-74
2023/01/08 12:51:19;;;;;;;2.50;1.38;;;9.60;92.50;;;;;;5047467;28;20828;-74
2023/01/08 12:54:15;;;;;;;6.43;3.15;;;9.80;92.50;;;;;;5092268;27;20393;-75
2023/01/08 12:56:41;;;;;;;6.95;3.80;;;9.90;92.30;;;;;;5092073;28;20032;-76
2023/01/08 12:59:16;;;;;;;2.28;1.40;;;10.00;92.20;;;;;;5092668;28;20036;-76
2023/01/08 13:02:03;;;;;;;3.97;1.65;;;10.10;92.20;;;;;;5076028;28;20066;-76
2023/01/08 13:04:39;;;;;;;5.90;3.05;;;10.20;92.00;;;;;;5036404;28;20036;-76
2023/01/08 13:07:04;;;;;;;9.43;4.53;;;10.30;92.00;;;;;;5042955;28;20032;-76
2023/01/08 13:09:30;;;;;;;8.90;3.88;;;10.30;91.90;;;;;;5072769;28;20028;-76
2023/01/08 13:11:57;;;;;;;5.53;2.88;;;10.40;91.80;;;;;;5071251;28;20047;-75
2023/01/08 13:14:22;;;;;;;5.10;2.50;;;10.50;91.80;;;;;;5073668;28;20050;-76
2023/01/08 13:17:00;;;;;;;3.05;2.00;;;10.50;91.70;;;;;;5061924;28;20537;-76
2023/01/08 13:19:27;;;;;;;1.98;1.70;;;10.60;91.60;;;;;;5058707;28;20507;-75
2023/01/08 13:21:54;;;;;;;6.28;3.50;;;10.60;91.60;;;;;;5076120;28;22647;-75
2023/01/08 13:24:28;;;;;;;3.05;1.92;;;10.70;91.50;;;;;;5056998;28;20115;-76
2023/01/08 13:27:09;;;;;;;2.67;2.10;;;10.70;91.30;;;;;;5075517;28;20035;-75
2023/01/08 13:29:44;;;;;;;3.63;2.50;;;10.70;91.10;;;;;;5062316;28;20035;-76
2023/01/08 13:32:46;;;;;;;5.25;2.30;;;10.70;91.10;;;;;;5061852;28;20098;-76
2023/01/08 13:35:30;;;;;;;2.35;1.48;;;10.70;91.00;;;;;;5073606;28;20032;-76
2023/01/08 13:38:11;;;;;;;2.65;1.85;;;10.70;91.00;;;;;;5059586;28;20032;-75
2023/01/08 13:40:43;;;;;;;2.78;1.25;;;10.60;90.90;;;;;;5089463;27;20474;-76
2023/01/08 13:43:21;;;;;;;1.35;1.15;;;10.60;90.90;;;;;;5073552;28;20035;-75
2023/01/08 13:45:56;;;;;;;3.05;1.30;;;10.60;90.90;;;;;;5094697;27;20115;-77
2023/01/08 13:48:29;;;;;;;3.30;1.80;;;10.50;90.80;;;;;;5077590;28;20038;-75
2023/01/08 13:50:55;;;;;;;3.60;1.70;;;10.50;90.80;;;;;;5044237;28;20040;-75
2023/01/08 13:53:20;;;;;;;2.28;1.85;;;10.50;90.80;;;;;;5060973;28;20036;-75
2023/01/08 13:55:57;;;;;;;3.03;1.40;;;10.50;90.80;;;;;;5076004;28;20819;-76
2023/01/08 13:58:24;;;;;;;1.83;1.38;;;10.50;90.70;;;;;;5059953;28;20397;-76
2023/01/08 14:00:52;;;;;;;1.00;0.75;;;10.50;90.70;;;;;;5046761;28;20139;-76
2023/01/08 14:03:28;;;;;;;1.50;1.23;;;10.50;90.70;;;;;;5043832;28;20067;-77
2023/01/08 14:06:12;;;;;;;1.55;1.30;;;10.50;90.60;;;;;;5076477;28;20463;-76
2023/01/08 14:09:01;;;;;;;1.63;1.27;;;10.40;90.40;;;;;;5092106;28;20063;-75
2023/01/08 14:11:28;;;;;;;3.63;1.98;;;10.40;90.40;;;;;;5073553;28;20039;-76
2023/01/08 14:13:54;;;;;;;3.13;2.00;;;10.40;90.50;;;;;;5059960;28;20091;-76
2023/01/08 14:16:20;;;;;;;2.33;1.05;;;10.40;90.40;;;;;;5041480;28;20039;-76
2023/01/08 14:18:46;;;;;;;1.60;1.50;;;10.30;90.40;;;;;;5073233;28;20111;-76
2023/01/08 14:21:12;;;;;;;1.85;1.40;;;10.30;90.40;;;;;;5089174;28;20752;-76
2023/01/08 14:23:44;;;;;;;3.10;2.30;;;10.30;90.30;;;;;;5057627;28;20043;-74
2023/01/08 14:26:23;;;;;;;1.95;1.20;;;10.20;90.30;;;;;;5058976;28;20070;-76
2023/01/08 14:28:52;;;;;;;2.88;1.50;;;10.30;90.30;;;;;;5072676;28;20028;-76
2023/01/08 14:31:19;;;;;;;3.55;2.22;;;10.20;90.30;;;;;;5073427;28;20040;-75
2023/01/08 14:33:45;;;;;;;1.73;1.40;;;10.20;90.30;;;;;;5054969;28;20394;-75
2023/01/08 14:36:10;;;;;;;6.18;3.10;;;10.20;90.30;;;;;;5058744;28;20035;-76
2023/01/08 14:38:37;;;;;;;5.57;3.03;;;10.10;90.20;;;;;;5056465;28;20048;-76
2023/01/08 14:41:04;;;;;;;8.20;3.17;;;10.10;90.20;;;;;;5090013;27;20673;-76
2023/01/08 14:43:38;;;;;;;6.25;2.33;;;10.10;90.20;;;;;;5057910;28;20040;-76
2023/01/08 14:46:04;;;;;;;2.35;1.80;;;10.10;90.20;;;;;;5070115;28;20027;-77
2023/01/08 14:48:42;;;;;;;1.85;1.10;;;10.00;90.20;;;;;;5059064;28;20515;-76
2023/01/08 14:51:17;;;;;;;1.80;1.55;;;10.00;90.10;;;;;;5071335;28;20127;-76
2023/01/08 14:53:47;;;;;;;2.47;1.10;;;10.00;90.10;;;;;;5053429;28;20128;-76
2023/01/08 14:56:16;;;;;;;1.63;1.00;;;10.00;90.10;;;;;;5076483;28;20660;-75
2023/01/08 14:58:42;;;;;;;1.25;1.13;;;10.00;90.10;;;;;;5076609;28;20051;-74
2023/01/08 15:01:27;;;;;;;1.25;1.00;;;10.00;90.10;;;;;;5084573;27;20061;-77
2023/01/08 15:04:04;;;;;;;1.52;1.20;;;10.00;90.10;;;;;;5069882;28;20039;-75
2023/01/08 15:06:30;;;;;;;1.83;1.45;;;10.00;90.10;;;;;;5072679;28;20097;-76
2023/01/08 15:08:56;;;;;;;2.03;1.58;;;9.90;90.10;;;;;;5078650;28;20036;-76
2023/01/08 15:11:21;;;;;;;4.63;2.40;;;9.90;90.10;;;;;;5073638;28;20039;-74
2023/01/08 15:13:47;;;;;;;10.48;5.45;;;9.90;90.10;;;;;;5093270;28;20028;-74
2023/01/08 15:16:28;;;;;;;4.57;2.95;;;9.90;90.10;;;;;;5062781;28;20043;-74
2023/01/08 15:19:15;;;;;;;2.35;1.85;;;9.90;90.10;;;;;;5077019;28;20498;-76
2023/01/08 15:21:47;;;;;;;3.20;1.83;;;9.90;90.10;;;;;;5069846;28;20044;-76
2023/01/08 15:24:31;;;;;;;8.32;5.60;;;9.80;90.10;;;;;;5075898;27;20031;-73
2023/01/08 15:26:56;;;;;;;3.22;2.20;;;9.80;90.10;;;;;;5088378;28;20080;-75
2023/01/08 15:29:25;;;;;;;5.47;4.00;;;9.80;90.10;;;;;;5068886;28;20455;-75
2023/01/08 15:31:50;;;;;;;3.22;2.42;;;9.70;90.10;;;;;;5058865;28;20766;-76
2023/01/08 15:34:18;;;;;;;4.45;3.05;;;9.80;90.20;;;;;;5070867;28;20130;-75
2023/01/08 15:36:45;;;;;;;7.90;4.57;;;9.70;90.10;;;;;;5069001;28;20040;-74
2023/01/08 15:39:11;;;;;;;2.15;1.80;;;9.70;90.20;;;;;;5068146;28;20639;-75
2023/01/08 15:44:21;;;;;;;8.25;4.38;;;9.70;90.20;;;;;;5062120;28;20687;-74
2023/01/08 15:46:46;;;;;;;2.20;2.00;;;9.60;90.20;;;;;;5054716;28;20044;-75
2023/01/08 15:49:12;;;;;;;2.22;1.40;;;9.60;90.20;;;;;;5069492;28;20647;-74
2023/01/08 15:51:41;;;;;;;1.38;1.27;;;9.60;90.20;;;;;;5069044;28;20164;-74
2023/01/08 15:54:11;;;;;;;2.95;1.90;;;9.50;90.20;;;;;;5053590;28;20035;-76
2023/01/08 15:56:36;;;;;;;3.67;2.80;;;9.50;90.60;;;;;;5041021;28;20670;-74
2023/01/08 15:59:02;;;;;;;2.95;2.00;;;9.50;90.20;;;;;;5056930;28;20042;-74
2023/01/08 16:01:27;;;;;;;3.60;3.30;;;9.50;90.20;;;;;;5075426;28;20490;-76
2023/01/08 16:03:53;;;;;;;6.80;5.90;;;9.50;90.30;;;;;;5092632;28;20187;-75
2023/01/08 16:06:18;;;;;;;8.32;6.07;;;9.50;90.30;;;;;;5072786;28;20039;-75
2023/01/08 16:08:45;;;;;;;12.05;7.35;;;9.50;90.30;;;;;;5058932;28;20047;-75
2023/01/08 16:11:12;;;;;;;4.47;3.70;;;9.50;90.30;;;;;;5075186;28;20132;-75
2023/01/08 16:13:37;;;;;;;2.80;1.88;;;9.40;90.30;;;;;;5057327;28;20095;-74
2023/01/08 16:16:11;;;;;;;5.50;3.28;;;9.40;90.30;;;;;;5056681;28;20032;-75
2023/01/08 16:18:37;;;;;;;28.42;13.82;;;9.40;90.40;;;;;;5053116;28;20035;-74
2023/01/08 16:21:03;;;;;;;5.57;3.78;;;9.40;90.30;;;;;;5068820;28;20051;-75
2023/01/08 16:23:29;;;;;;;9.10;6.53;;;9.40;90.50;;;;;;5055740;28;20418;-75
2023/01/08 16:25:54;;;;;;;3.88;3.22;;;9.30;90.40;;;;;;5072932;28;20032;-75
2023/01/08 16:28:20;;;;;;;5.32;3.38;;;9.30;90.40;;;;;;5072803;28;20039;-75
2023/01/08 16:30:45;;;;;;;5.75;4.10;;;9.30;90.50;;;;;;5071419;28;20032;-75
2023/01/08 16:33:11;;;;;;;3.63;3.05;;;9.30;90.50;;;;;;5056202;28;20023;-73
2023/01/08 16:35:36;;;;;;;5.05;2.28;;;9.30;90.50;;;;;;5089549;28;20088;-75
2023/01/08 16:38:02;;;;;;;17.05;9.23;;;9.30;90.50;;;;;;5052150;28;20063;-75
2023/01/08 16:40:27;;;;;;;9.43;6.07;;;9.30;90.50;;;;;;5069353;28;20042;-74
2023/01/08 16:42:53;;;;;;;15.70;9.90;;;9.30;90.60;;;;;;5055264;28;20027;-73
2023/01/08 16:45:18;;;;;;;10.52;5.85;;;9.20;90.50;;;;;;5087955;28;20688;-75
2023/01/08 16:47:44;;;;;;;7.57;4.03;;;9.20;90.50;;;;;;5057153;28;20031;-75
2023/01/08 16:50:10;;;;;;;5.82;3.75;;;9.20;90.60;;;;;;5045291;28;20032;-75
2023/01/08 16:52:37;;;;;;;13.18;7.15;;;9.20;90.60;;;;;;5058329;28;20055;-76
2023/01/08 16:55:03;;;;;;;9.48;5.20;;;9.10;90.60;;;;;;5086430;28;20036;-73
2023/01/08 16:57:29;;;;;;;7.82;5.03;;;9.10;90.60;;;;;;5062157;28;20398;-75
2023/01/08 16:59:54;;;;;;;10.32;5.68;;;9.10;90.60;;;;;;5057047;28;20031;-74
2023/01/08 17:02:20;;;;;;;11.68;7.85;;;9.10;90.60;;;;;;5068162;28;20059;-75
2023/01/08 17:04:46;;;;;;;10.60;7.95;;;9.00;90.60;;;;;;5065968;28;20032;-76
2023/01/08 17:07:14;;;;;;;12.05;8.30;;;9.00;91.00;;;;;;5039790;28;20074;-76
2023/01/08 17:09:40;;;;;;;13.52;10.93;;;9.00;90.70;;;;;;5070982;28;20040;-75
2023/01/08 17:12:06;;;;;;;10.35;9.07;;;9.00;90.70;;;;;;5054459;28;20039;-74
2023/01/08 17:14:31;;;;;;;4.32;3.92;;;8.90;90.70;;;;;;5066945;28;20035;-75
2023/01/08 17:16:57;;;;;;;2.13;1.17;;;8.90;90.70;;;;;;5088837;28;20034;-76
2023/01/08 17:19:22;;;;;;;2.35;1.15;;;8.90;90.70;;;;;;5071004;27;20036;-76
2023/01/08 17:21:49;;;;;;;1.88;1.60;;;8.90;90.70;;;;;;5071981;28;20040;-76
2023/01/08 17:24:14;;;;;;;1.30;1.10;;;8.80;90.70;;;;;;5072246;28;20047;-75
2023/01/08 17:26:40;;;;;;;1.33;0.82;;;8.80;90.80;;;;;;5062137;28;20061;-75
2023/01/08 17:29:05;;;;;;;2.42;1.92;;;8.80;90.80;;;;;;5051381;28;20128;-73
2023/01/08 17:31:38;;;;;;;3.92;2.83;;;8.80;90.80;;;;;;5069768;28;20046;-74
2023/01/08 17:34:04;;;;;;;3.75;2.65;;;8.80;90.80;;;;;;5058685;28;20035;-75
2023/01/08 17:36:31;;;;;;;3.17;1.10;;;8.70;90.80;;;;;;5070763;27;20220;-74
2023/01/08 17:38:56;;;;;;;1.92;1.33;;;8.70;90.80;;;;;;5067288;28;20051;-75
2023/01/08 17:44:07;;;;;;;0.82;0.77;;;8.60;90.80;;;;;;5075317;28;20046;-75
2023/01/08 17:46:34;;;;;;;0.65;0.65;;;8.60;90.80;;;;;;5039971;28;20718;-76
2023/01/08 17:49:00;;;;;;;1.70;1.00;;;8.60;90.80;;;;;;5069465;28;20046;-74
2023/01/08 17:51:25;;;;;;;2.40;1.55;;;8.50;90.80;;;;;;5064815;28;20047;-73
2023/01/08 17:53:51;;;;;;;6.68;3.55;;;8.50;90.80;;;;;;5063067;28;20149;-71
2023/01/08 17:56:16;;;;;;;4.13;1.60;;;8.50;90.90;;;;;;5068175;28;20044;-75
2023/01/08 17:58:42;;;;;;;0.93;0.90;;;8.50;90.90;;;;;;5090350;28;20059;-75
2023/01/08 18:01:10;;;;;;;0.93;0.80;;;8.40;90.90;;;;;;5068236;28;20155;-75
2023/01/08 18:03:35;;;;;;;1.92;0.50;;;8.40;90.90;;;;;;5067625;28;20089;-75
2023/01/08 18:06:08;;;;;;;1.15;0.70;;;8.30;90.90;;;;;;5057429;28;21115;-75
2023/01/08 18:08:34;;;;;;;1.73;0.73;;;8.30;90.90;;;;;;5059270;28;20057;-75
2023/01/08 18:11:01;;;;;;;7.75;4.85;;;8.30;91.00;;;;;;5048341;28;20040;-76
2023/01/08 18:13:27;;;;;;;3.45;2.72;;;8.30;91.00;;;;;;5075601;28;20036;-75
2023/01/08 18:15:52;;;;;;;4.40;3.40;;;8.20;91.00;;;;;;5072522;28;20032;-76
2023/01/08 18:18:18;;;;;;;3.40;2.78;;;8.30;91.00;;;;;;5073053;28;20481;-75
2023/01/08 18:20:43;;;;;;;3.75;2.08;;;8.20;91.00;;;;;;5058470;28;20044;-75
2023/01/08 18:23:09;;;;;;;2.67;2.05;;;8.10;91.00;;;;;;5073061;28;20032;-75
2023/01/08 18:25:39;;;;;;;3.65;1.50;;;8.20;91.10;;;;;;5075959;28;20685;-76
2023/01/08 18:28:04;;;;;;;1.13;1.02;;;8.10;91.10;;;;;;5070475;28;20804;-76
2023/01/08 18:30:30;;;;;;;1.13;1.00;;;8.10;91.10;;;;;;5087714;27;20073;-74
2023/01/08 18:32:55;;;;;;;0.82;0.70;;;8.10;91.10;;;;;;5068887;28;20051;-76
2023/01/08 18:35:21;;;;;;;0.82;0.80;;;8.00;91.10;;;;;;5067761;28;20161;-75
2023/01/08 18:37:46;;;;;;;0.70;0.65;;;8.00;91.20;;;;;;5070058;28;20051;-75
2023/01/08 18:40:12;;;;;;;0.95;0.85;;;8.00;91.20;;;;;;5067321;28;20044;-75
2023/01/08 18:42:37;;;;;;;1.10;1.00;;;8.00;91.20;;;;;;5063741;28;20151;-74
2023/01/08 18:45:03;;;;;;;1.38;0.90;;;7.90;91.20;;;;;;5069371;28;20040;-75
2023/01/08 18:47:29;;;;;;;2.78;1.63;;;7.90;91.20;;;;;;5056658;28;20108;-76
2023/01/08 18:49:57;;;;;;;10.90;5.03;;;7.90;91.20;;;;;;5068237;28;20085;-75
2023/01/08 18:52:22;;;;;;;8.60;4.75;;;7.90;91.30;;;;;;5063544;28;20124;-76
2023/01/08 18:54:48;;;;;;;3.40;1.77;;;7.90;91.30;;;;;;5051205;28;20032;-76
2023/01/08 18:57:13;;;;;;;1.42;0.95;;;7.90;91.30;;;;;;5043415;28;20134;-75
2023/01/08 18:59:40;;;;;;;1.20;0.80;;;7.80;91.30;;;;;;5052926;27;20036;-75
2023/01/08 19:02:06;;;;;;;1.52;0.93;;;7.90;91.40;;;;;;5067055;28;20039;-75
2023/01/08 19:04:31;;;;;;;2.72;0.77;;;7.80;91.40;;;;;;5079519;28;20627;-75
2023/01/08 19:06:57;;;;;;;1.15;0.85;;;7.80;91.40;;;;;;5051733;28;20135;-75
2023/01/08 19:09:22;;;;;;;1.50;0.77;;;7.80;91.40;;;;;;5070687;28;20525;-76
2023/01/08 19:11:48;;;;;;;2.47;0.60;;;7.80;91.40;;;;;;5036533;28;20040;-76
2023/01/08 19:14:13;;;;;;;1.05;0.60;;;7.80;91.50;;;;;;5064504;28;20627;-74
2023/01/08 19:16:39;;;;;;;0.63;0.63;;;7.80;91.50;;;;;;5068350;28;20039;-76
2023/01/08 19:19:05;;;;;;;0.50;0.50;;;7.80;91.50;;;;;;5086160;28;20036;-76
2023/01/08 19:21:31;;;;;;;1.05;0.75;;;7.80;91.50;;;;;;5051639;28;20036;-75
2023/01/08 19:23:57;;;;;;;0.68;0.50;;;7.70;91.50;;;;;;5068855;28;20036;-76
2023/01/08 19:26:22;;;;;;;1.33;0.80;;;7.70;91.50;;;;;;5065311;28;20419;-75
2023/01/08 19:28:48;;;;;;;8.70;3.85;;;7.70;91.50;;;;;;5068426;28;20639;-76
2023/01/08 19:31:15;;;;;;;2.72;1.60;;;7.60;91.50;;;;;;5054750;28;20042;-74
2023/01/08 19:33:40;;;;;;;6.60;2.50;;;7.60;91.50;;;;;;5069520;28;20036;-76
2023/01/08 19:36:11;;;;;;;1.50;1.10;;;7.60;91.50;;;;;;5051392;28;20089;-76
2023/01/08 19:38:37;;;;;;;1.13;1.00;;;7.60;91.50;;;;;;5066456;28;20036;-76
2023/01/08 19:41:02;;;;;;;3.08;1.48;;;7.60;91.50;;;;;;5056700;28;20108;-76
2023/01/08 19:43:41;;;;;;;1.90;1.50;;;7.60;91.50;;;;;;5044943;28;20507;-75
2023/01/08 19:46:06;;;;;;;2.45;1.50;;;7.50;91.50;;;;;;5076976;28;20033;-76
2023/01/08 19:48:32;;;;;;;2.50;1.20;;;7.50;91.50;;;;;;5064464;28;20955;-75